createdAt,value
2023-02-24T00:01:26.116Z,90.30
2023-02-24T00:03:53.992Z,81.93
2023-02-24T00:06:21.220Z,77.18
2023-02-24T00:08:48.532Z,74.32
2023-02-24T00:11:17.171Z,77.07
2023-02-24T00:13:48.402Z,92.45
2023-02-24T00:16:17.808Z,93.68
2023-02-24T00:18:45.563Z,73.82
2023-02-24T00:21:15.020Z,72.28
2023-02-24T00:23:43.902Z,71.60
2023-02-24T00:26:12.759Z,73.82
2023-02-24T00:28:40.257Z,69.25
2023-02-24T00:31:08.625Z,69.50
2023-02-24T00:33:35.929Z,67.00
2023-02-24T00:36:08.052Z,62.00
2023-02-24T00:38:36.045Z,73.18
2023-02-24T00:41:09.215Z,65.35
2023-02-24T00:43:37.472Z,64.28
2023-02-24T00:46:11.341Z,83.28
2023-02-24T00:48:42.486Z,89.65
2023-02-24T00:51:13.447Z,68.53
2023-02-24T00:53:41.328Z,80.07
2023-02-24T00:56:12.127Z,95.78
2023-02-24T00:58:40.507Z,86.85
2023-02-24T01:01:15.067Z,89.78
2023-02-24T01:03:42.563Z,85.32
2023-02-24T01:06:10.080Z,74.40
2023-02-24T01:08:40.194Z,82.07
2023-02-24T01:11:26.186Z,71.75
2023-02-24T01:13:53.356Z,82.00
2023-02-24T01:16:20.519Z,81.18
2023-02-24T01:18:48.065Z,86.78
2023-02-24T01:21:19.919Z,83.03
2023-02-24T01:23:50.758Z,85.20
2023-02-24T01:26:19.302Z,83.28
2023-02-24T01:28:46.937Z,72.90
2023-02-24T01:31:16.952Z,64.78
2023-02-24T01:33:45.921Z,75.70
2023-02-24T01:36:16.452Z,78.00
2023-02-24T01:38:44.572Z,73.82
2023-02-24T01:41:13.972Z,79.32
2023-02-24T01:44:02.069Z,60.38
2023-02-24T01:46:30.507Z,66.07
2023-02-24T01:48:59.868Z,67.38
2023-02-24T01:51:29.858Z,67.88
2023-02-24T01:53:57.004Z,66.53
2023-02-24T01:56:24.464Z,68.63
2023-02-24T01:58:52.871Z,85.30
2023-02-24T02:01:20.739Z,81.80
2023-02-24T02:03:49.148Z,84.35
2023-02-24T02:06:19.892Z,75.35
2023-02-24T02:08:47.387Z,64.47
2023-02-24T02:11:20.535Z,65.53
2023-02-24T02:13:52.393Z,68.43
2023-02-24T02:16:34.816Z,63.55
2023-02-24T02:19:20.634Z,52.83
2023-02-24T02:21:59.818Z,58.20
2023-02-24T02:24:48.400Z,57.15
2023-02-24T02:27:21.178Z,49.03
2023-02-24T02:29:51.422Z,47.38
2023-02-24T02:32:21.855Z,43.00
2023-02-24T02:35:04.306Z,46.03
2023-02-24T02:37:34.267Z,42.47
2023-02-24T02:40:17.236Z,36.08
2023-02-24T02:42:48.168Z,38.03
2023-02-24T02:45:21.461Z,34.40
2023-02-24T02:47:54.072Z,36.40
2023-02-24T02:50:36.435Z,33.10
2023-02-24T02:53:07.626Z,30.35
2023-02-24T02:55:53.519Z,31.48
2023-02-24T02:58:23.877Z,33.50
2023-02-24T03:01:02.661Z,36.47
2023-02-24T03:03:32.758Z,37.10
2023-02-24T03:06:19.249Z,39.40
2023-02-24T03:09:12.304Z,31.70
2023-02-24T03:11:40.209Z,33.58
2023-02-24T03:14:12.087Z,35.80
2023-02-24T03:16:43.726Z,36.33
2023-02-24T03:19:12.049Z,40.03
2023-02-24T03:21:47.096Z,33.83
2023-02-24T03:24:15.663Z,41.20
2023-02-24T03:26:49.846Z,35.85
2023-02-24T03:29:24.064Z,33.05
2023-02-24T03:32:02.032Z,37.25
2023-02-24T03:34:38.437Z,42.92
2023-02-24T03:37:06.078Z,44.70
2023-02-24T03:39:33.294Z,47.15
2023-02-24T03:42:08.767Z,45.85
2023-02-24T03:44:35.944Z,47.90
2023-02-24T03:47:03.480Z,46.38
2023-02-24T03:49:31.291Z,40.90
2023-02-24T03:52:08.844Z,42.15
2023-02-24T03:54:59.234Z,38.40
2023-02-24T03:57:34.753Z,38.58
2023-02-24T04:00:21.451Z,38.47
2023-02-24T04:02:51.543Z,48.50
2023-02-24T04:05:21.850Z,42.45
2023-02-24T04:07:55.470Z,39.42
2023-02-24T04:12:59.671Z,43.78
2023-02-24T04:15:29.848Z,46.17
2023-02-24T04:18:09.739Z,54.95
2023-02-24T04:20:39.860Z,52.15
2023-02-24T04:23:15.783Z,48.05
2023-02-24T04:25:44.994Z,48.83
2023-02-24T04:28:12.982Z,48.83
2023-02-24T04:30:42.343Z,50.17
2023-02-24T04:33:10.249Z,55.38
2023-02-24T04:35:37.946Z,63.67
2023-02-24T04:38:05.587Z,54.80
2023-02-24T04:40:32.890Z,62.55
2023-02-24T04:43:00.095Z,44.90
2023-02-24T04:45:28.625Z,46.80
2023-02-24T04:48:01.333Z,46.45
2023-02-24T04:50:30.435Z,51.30
2023-02-24T04:53:01.041Z,59.92
2023-02-24T04:55:29.854Z,54.08
2023-02-24T04:57:57.970Z,42.65
2023-02-24T05:00:26.816Z,46.47
2023-02-24T05:02:56.208Z,47.85
2023-02-24T05:05:30.174Z,50.42
2023-02-24T05:08:02.955Z,49.85
2023-02-24T05:10:31.798Z,51.85
2023-02-24T05:13:00.843Z,51.33
2023-02-24T05:15:33.001Z,43.45
2023-02-24T05:18:00.731Z,34.17
2023-02-24T05:20:48.090Z,32.20
2023-02-24T05:23:16.948Z,29.42
2023-02-24T05:25:44.476Z,20.17
2023-02-24T05:28:11.700Z,24.83
2023-02-24T05:30:39.152Z,30.48
2023-02-24T05:33:08.012Z,23.55
2023-02-24T05:35:36.837Z,23.98
2023-02-24T05:38:04.176Z,27.50
2023-02-24T05:40:31.427Z,22.52
2023-02-24T05:43:04.061Z,23.73
2023-02-24T05:45:31.595Z,23.02
2023-02-24T05:47:58.816Z,22.17
2023-02-24T05:50:26.504Z,25.13
2023-02-24T05:52:56.094Z,22.27
2023-02-24T05:55:23.930Z,25.80
2023-02-24T05:57:51.222Z,23.63
2023-02-24T06:00:19.592Z,23.48
2023-02-24T06:02:50.074Z,28.73
2023-02-24T06:05:25.448Z,29.27
2023-02-24T06:08:06.210Z,32.88
2023-02-24T06:10:34.796Z,32.85
2023-02-24T06:13:03.038Z,21.77
2023-02-24T06:15:31.442Z,22.65
2023-02-24T06:18:00.892Z,25.38
2023-02-24T06:20:30.218Z,22.42
2023-02-24T06:22:58.602Z,23.92
2023-02-24T06:25:26.807Z,22.65
2023-02-24T06:27:55.661Z,26.52
2023-02-24T06:30:24.869Z,25.85
2023-02-24T06:32:52.803Z,22.65
2023-02-24T06:35:20.800Z,32.00
2023-02-24T06:37:48.717Z,29.15
2023-02-24T06:40:16.031Z,30.30
2023-02-24T06:42:47.080Z,34.25
2023-02-24T06:45:15.390Z,33.55
2023-02-24T06:47:43.399Z,29.38
2023-02-24T06:50:12.464Z,32.95
2023-02-24T06:52:41.075Z,27.65
2023-02-24T06:55:25.808Z,28.92
2023-02-24T06:57:57.358Z,30.90
2023-02-24T07:00:37.361Z,36.70
2023-02-24T07:03:15.011Z,27.80
2023-02-24T07:06:15.689Z,32.65
2023-02-24T07:08:44.049Z,30.75
2023-02-24T07:11:12.058Z,34.20
2023-02-24T07:13:40.333Z,29.55
2023-02-24T07:16:07.689Z,29.27
2023-02-24T07:18:36.920Z,36.40
2023-02-24T07:21:11.519Z,37.03
2023-02-24T07:23:40.456Z,29.88
2023-02-24T07:26:11.976Z,34.67
2023-02-24T07:28:42.481Z,31.25
2023-02-24T07:31:12.206Z,39.78
2023-02-24T07:33:40.446Z,33.80
2023-02-24T07:36:08.728Z,31.92
2023-02-24T07:38:39.804Z,26.75
2023-02-24T07:41:07.826Z,24.08
2023-02-24T07:43:35.526Z,25.90
2023-02-24T07:46:12.495Z,32.38
2023-02-24T07:48:41.404Z,28.70
2023-02-24T07:51:08.660Z,17.48
2023-02-24T07:53:36.484Z,19.80
2023-02-24T07:56:13.511Z,13.00
2023-02-24T07:58:51.215Z,14.32
2023-02-24T08:01:28.075Z,16.48
2023-02-24T08:03:56.913Z,14.98
2023-02-24T08:06:28.193Z,10.50
2023-02-24T08:08:59.761Z,13.10
2023-02-24T08:11:42.786Z,11.07
2023-02-24T08:14:14.076Z,11.33
2023-02-24T08:16:42.327Z,9.88
2023-02-24T08:19:14.408Z,14.13
2023-02-24T08:21:47.215Z,10.68
2023-02-24T08:24:18.465Z,45.33
2023-02-24T08:27:04.501Z,22.55
2023-02-24T08:29:40.361Z,19.25
2023-02-24T08:32:12.078Z,19.02
2023-02-24T08:34:39.624Z,18.50
2023-02-24T08:37:06.999Z,20.88
2023-02-24T08:39:36.433Z,19.90
2023-02-24T08:42:03.742Z,10.98
2023-02-24T08:44:31.089Z,18.85
2023-02-24T08:47:00.801Z,13.05
2023-02-24T08:49:28.415Z,12.32
2023-02-24T08:51:55.927Z,9.20
2023-02-24T08:54:27.895Z,9.65
2023-02-24T08:56:56.504Z,6.93
2023-02-24T08:59:38.136Z,6.88
2023-02-24T09:02:18.727Z,8.38
2023-02-24T09:04:46.787Z,7.93
2023-02-24T09:07:17.530Z,7.97
2023-02-24T09:09:44.834Z,8.30
2023-02-24T09:12:24.457Z,10.10
2023-02-24T09:14:56.475Z,6.63
2023-02-24T09:17:49.888Z,7.97
2023-02-24T09:20:27.792Z,7.68
2023-02-24T09:23:07.656Z,5.97
2023-02-24T09:25:44.855Z,5.43
2023-02-24T09:28:17.383Z,6.78
2023-02-24T09:30:55.776Z,6.55
2023-02-24T09:33:26.281Z,12.10
2023-02-24T09:36:03.332Z,11.18
2023-02-24T09:38:57.262Z,6.95
2023-02-24T09:42:02.192Z,6.45
2023-02-24T09:44:40.741Z,7.13
2023-02-24T09:47:31.228Z,8.05
2023-02-24T09:50:04.514Z,7.25
2023-02-24T09:52:41.151Z,8.75
2023-02-24T09:55:27.089Z,9.30
2023-02-24T09:58:17.817Z,11.70
2023-02-24T10:00:59.656Z,7.72
2023-02-24T10:03:48.461Z,10.50
2023-02-24T10:06:20.962Z,8.48
2023-02-24T10:08:51.342Z,8.18
2023-02-24T10:11:32.863Z,8.45
2023-02-24T10:14:05.592Z,7.85
2023-02-24T10:16:43.139Z,5.23
2023-02-24T10:19:41.345Z,7.78
2023-02-24T10:22:27.596Z,8.13
2023-02-24T10:25:01.530Z,7.68
2023-02-24T10:27:33.416Z,12.23
2023-02-24T10:30:19.611Z,2.60
2023-02-24T10:32:56.767Z,1.88
2023-02-24T10:35:26.384Z,1.45
2023-02-24T10:38:00.974Z,2.45
2023-02-24T10:40:44.811Z,1.58
2023-02-24T10:43:18.103Z,2.05
2023-02-24T10:45:46.324Z,3.67
2023-02-24T10:48:40.599Z,1.55
2023-02-24T10:51:30.450Z,1.95
2023-02-24T10:54:23.047Z,6.43
2023-02-24T10:57:08.233Z,4.57
2023-02-24T11:00:05.864Z,1.63
2023-02-24T11:02:56.338Z,2.15
2023-02-24T11:05:38.175Z,5.78
2023-02-24T11:08:26.246Z,2.50
2023-02-24T11:10:58.707Z,2.40
2023-02-24T11:13:45.807Z,2.10
2023-02-24T11:16:32.375Z,5.25
2023-02-24T11:19:00.431Z,3.67
2023-02-24T11:21:28.416Z,2.50
2023-02-24T11:23:59.584Z,2.40
2023-02-24T11:26:36.116Z,3.75
2023-02-24T11:29:22.386Z,3.03
2023-02-24T11:32:12.144Z,4.68
2023-02-24T11:34:49.587Z,5.68
2023-02-24T11:37:49.229Z,5.25
2023-02-24T11:40:23.812Z,4.93
2023-02-24T11:42:57.053Z,4.72
2023-02-24T11:45:33.956Z,4.35
2023-02-24T11:48:15.154Z,6.28
2023-02-24T11:50:48.095Z,6.57
2023-02-24T11:53:35.737Z,5.30
2023-02-24T11:56:04.548Z,5.60
2023-02-24T11:58:45.980Z,6.85
2023-02-24T12:01:18.591Z,6.28
2023-02-24T12:03:56.934Z,10.40
2023-02-24T12:06:31.018Z,6.22
2023-02-24T12:09:01.895Z,6.55
2023-02-24T12:11:47.363Z,9.05
2023-02-24T12:14:19.948Z,5.63
2023-02-24T12:16:48.407Z,7.75
2023-02-24T12:19:21.590Z,6.07
2023-02-24T12:22:03.068Z,6.93
2023-02-24T12:24:30.391Z,6.70
2023-02-24T12:27:03.718Z,6.57
2023-02-24T12:29:50.094Z,6.43
2023-02-24T12:32:35.983Z,5.60
2023-02-24T12:35:19.973Z,9.20
2023-02-24T12:40:33.124Z,6.40
2023-02-24T12:43:19.799Z,6.55
2023-02-24T12:46:06.465Z,6.85
2023-02-24T12:48:58.976Z,8.95
2023-02-24T12:51:33.577Z,8.32
2023-02-24T12:54:06.069Z,10.73
2023-02-24T12:56:39.365Z,16.63
2023-02-24T12:59:07.547Z,12.07
2023-02-24T13:01:41.504Z,6.35
2023-02-24T13:04:16.880Z,7.05
2023-02-24T13:06:56.675Z,9.80
2023-02-24T13:09:23.879Z,7.32
2023-02-24T13:11:51.048Z,7.78
2023-02-24T13:14:28.760Z,9.20
2023-02-24T13:17:05.278Z,10.63
2023-02-24T13:19:32.480Z,6.97
2023-02-24T13:22:04.442Z,9.52
2023-02-24T13:24:31.943Z,9.18
2023-02-24T13:27:21.025Z,10.32
2023-02-24T13:29:57.501Z,6.32
2023-02-24T13:32:31.955Z,9.02
2023-02-24T13:35:04.253Z,8.48
2023-02-24T13:37:34.701Z,9.48
2023-02-24T13:40:13.588Z,6.65
2023-02-24T13:42:42.541Z,7.88
2023-02-24T13:45:15.548Z,6.47
2023-02-24T13:48:00.707Z,6.10
2023-02-24T13:50:47.723Z,9.18
2023-02-24T13:53:24.412Z,6.60
2023-02-24T13:56:11.949Z,7.25
2023-02-24T13:58:42.218Z,6.22
2023-02-24T14:01:10.854Z,10.73
2023-02-24T14:03:40.248Z,6.15
2023-02-24T14:06:13.992Z,10.38
2023-02-24T14:08:46.620Z,9.68
2023-02-24T14:11:15.537Z,7.70
2023-02-24T14:13:46.361Z,7.75
2023-02-24T14:16:18.072Z,6.53
2023-02-24T14:18:52.697Z,7.72
2023-02-24T14:21:24.441Z,7.32
2023-02-24T14:24:08.178Z,14.25
2023-02-24T14:26:39.079Z,6.68
2023-02-24T14:29:07.963Z,6.57
2023-02-24T14:31:35.999Z,5.70
2023-02-24T14:34:05.995Z,7.32
2023-02-24T14:36:36.398Z,10.10
2023-02-24T14:39:14.712Z,7.90
2023-02-24T14:41:41.884Z,7.15
2023-02-24T14:44:23.235Z,7.07
2023-02-24T14:46:51.940Z,7.45
2023-02-24T14:49:20.745Z,9.07
2023-02-24T14:51:50.824Z,9.70
2023-02-24T14:54:22.077Z,8.30
2023-02-24T14:56:49.472Z,7.22
2023-02-24T14:59:18.707Z,5.43
2023-02-24T15:01:48.592Z,7.03
2023-02-24T15:04:22.247Z,7.57
2023-02-24T15:09:18.919Z,10.13
2023-02-24T15:11:46.196Z,6.18
2023-02-24T15:14:32.782Z,7.93
2023-02-24T15:17:02.436Z,5.35
2023-02-24T15:19:35.913Z,7.00
2023-02-24T15:22:03.275Z,9.13
2023-02-24T15:24:35.248Z,7.72
2023-02-24T15:27:03.988Z,7.32
2023-02-24T15:29:31.962Z,13.18
2023-02-24T15:32:00.291Z,9.15
2023-02-24T15:34:32.391Z,7.35
2023-02-24T15:37:03.488Z,5.80
2023-02-24T15:39:35.831Z,4.07
2023-02-24T15:42:07.299Z,8.77
2023-02-24T15:44:35.416Z,7.28
2023-02-24T15:47:14.062Z,9.18
2023-02-24T15:49:41.177Z,6.43
2023-02-24T15:52:10.680Z,7.18
2023-02-24T15:54:38.484Z,6.97
2023-02-24T15:57:05.871Z,7.93
2023-02-24T15:59:33.074Z,9.85
2023-02-24T16:02:00.279Z,10.15
2023-02-24T16:04:28.200Z,6.07
2023-02-24T16:06:57.020Z,6.72
2023-02-24T16:09:32.373Z,7.75
2023-02-24T16:12:00.106Z,6.97
2023-02-24T16:14:27.323Z,8.82
2023-02-24T16:16:54.634Z,9.25
2023-02-24T16:19:21.807Z,8.73
2023-02-24T16:21:49.022Z,8.00
2023-02-24T16:24:16.189Z,10.55
2023-02-24T16:26:43.355Z,8.48
2023-02-24T16:29:14.771Z,11.77
2023-02-24T16:31:42.523Z,7.63
2023-02-24T16:34:12.956Z,11.32
2023-02-24T16:36:40.186Z,9.40
2023-02-24T16:39:08.386Z,12.13
2023-02-24T16:41:35.546Z,10.45
2023-02-24T16:44:02.729Z,12.20
2023-02-24T16:46:33.496Z,15.13
2023-02-24T16:49:00.692Z,8.70
2023-02-24T16:51:29.065Z,16.45
2023-02-24T16:53:56.253Z,10.50
2023-02-24T16:56:23.954Z,11.30
2023-02-24T16:58:51.330Z,13.80
2023-02-24T17:01:22.117Z,15.93
2023-02-24T17:03:54.061Z,12.10
2023-02-24T17:06:22.485Z,11.30
2023-02-24T17:08:51.504Z,10.60
2023-02-24T17:11:20.153Z,12.30
2023-02-24T17:13:47.366Z,7.75
2023-02-24T17:16:14.554Z,8.07
2023-02-24T17:18:41.848Z,7.65
2023-02-24T17:21:10.964Z,6.57
2023-02-24T17:23:40.780Z,5.97
2023-02-24T17:26:08.621Z,4.97
2023-02-24T17:28:35.805Z,5.65
2023-02-24T17:31:03.351Z,8.15
2023-02-24T17:33:30.881Z,7.20
2023-02-24T17:35:58.811Z,5.13
2023-02-24T17:38:26.353Z,6.63
2023-02-24T17:40:55.901Z,3.33
2023-02-24T17:43:23.045Z,7.40
2023-02-24T17:45:52.078Z,4.60
2023-02-24T17:48:19.762Z,6.97
2023-02-24T17:50:46.980Z,3.35
2023-02-24T17:53:14.084Z,4.05
2023-02-24T17:55:55.943Z,5.53
2023-02-24T17:58:28.558Z,3.47
2023-02-24T18:00:55.749Z,3.90
2023-02-24T18:03:23.267Z,2.28
2023-02-24T18:05:58.439Z,5.10
2023-02-24T18:08:25.672Z,3.65
2023-02-24T18:10:52.830Z,4.57
2023-02-24T18:13:19.989Z,5.70
2023-02-24T18:15:47.394Z,4.75
2023-02-24T18:18:14.550Z,4.63
2023-02-24T18:20:44.696Z,10.48
2023-02-24T18:23:12.731Z,28.23
2023-02-24T18:25:39.927Z,56.45
2023-02-24T18:28:07.293Z,3.83
2023-02-24T18:30:34.575Z,4.60
2023-02-24T18:33:02.051Z,3.80
2023-02-24T18:35:30.537Z,5.82
2023-02-24T18:37:57.706Z,13.88
2023-02-24T18:40:27.158Z,13.18
2023-02-24T18:42:54.527Z,15.00
2023-02-24T18:45:22.085Z,8.02
2023-02-24T18:47:51.540Z,5.18
2023-02-24T18:50:19.302Z,3.85
2023-02-24T18:52:46.415Z,5.47
2023-02-24T18:55:13.608Z,6.88
2023-02-24T18:57:43.201Z,5.55
2023-02-24T19:00:12.652Z,4.47
2023-02-24T19:02:41.160Z,4.03
2023-02-24T19:05:08.898Z,3.17
2023-02-24T19:07:36.087Z,2.67
2023-02-24T19:10:03.607Z,3.33
2023-02-24T19:12:30.744Z,4.68
2023-02-24T19:14:57.873Z,3.60
2023-02-24T19:17:25.061Z,6.07
2023-02-24T19:19:52.533Z,3.60
2023-02-24T19:22:19.659Z,11.00
2023-02-24T19:24:46.813Z,3.70
2023-02-24T19:27:14.540Z,3.75
2023-02-24T19:29:41.890Z,5.63
2023-02-24T19:32:09.272Z,3.78
2023-02-24T19:34:38.020Z,4.03
2023-02-24T19:37:05.226Z,6.72
2023-02-24T19:39:32.515Z,4.55
2023-02-24T19:41:59.738Z,3.35
2023-02-24T19:44:26.991Z,2.55
2023-02-24T19:46:54.151Z,3.95
2023-02-24T19:49:21.286Z,4.45
2023-02-24T19:51:48.637Z,6.25
2023-02-24T19:54:16.240Z,3.10
2023-02-24T19:56:44.225Z,3.13
2023-02-24T19:59:11.531Z,3.10
2023-02-24T20:01:38.983Z,3.45
2023-02-24T20:04:06.782Z,5.35
2023-02-24T20:06:38.089Z,3.67
2023-02-24T20:09:06.668Z,4.05
2023-02-24T20:11:35.636Z,6.32
2023-02-24T20:14:03.174Z,5.53
2023-02-24T20:16:34.587Z,6.25
2023-02-24T20:19:03.412Z,4.07
2023-02-24T20:21:31.242Z,5.18
2023-02-24T20:24:02.269Z,3.28
2023-02-24T20:26:29.623Z,3.88
2023-02-24T20:28:57.135Z,3.72
2023-02-24T20:31:24.465Z,3.00
2023-02-24T20:33:51.698Z,4.90
2023-02-24T20:36:20.646Z,3.95
2023-02-24T20:38:48.095Z,6.35
2023-02-24T20:41:15.328Z,5.25
2023-02-24T20:43:42.763Z,4.32
2023-02-24T20:46:14.376Z,4.85
2023-02-24T20:48:41.697Z,3.95
2023-02-24T20:51:09.232Z,3.45
2023-02-24T20:53:54.607Z,3.25
2023-02-24T20:56:24.868Z,3.50
2023-02-24T20:58:53.290Z,4.13
2023-02-24T21:01:21.394Z,3.78
2023-02-24T21:03:51.088Z,4.03
2023-02-24T21:06:18.678Z,4.95
2023-02-24T21:08:45.917Z,7.10
2023-02-24T21:11:14.182Z,6.55
2023-02-24T21:13:46.078Z,9.10
2023-02-24T21:16:13.827Z,7.22
2023-02-24T21:18:42.208Z,9.73
2023-02-24T21:21:09.902Z,10.63
2023-02-24T21:23:38.012Z,9.48
2023-02-24T21:26:05.383Z,7.93
2023-02-24T21:28:32.582Z,10.52
2023-02-24T21:30:59.890Z,8.73
2023-02-24T21:33:27.623Z,9.20
2023-02-24T21:36:09.619Z,8.20
2023-02-24T21:38:37.230Z,9.85
2023-02-24T21:41:06.003Z,9.50
2023-02-24T21:43:33.805Z,8.80
2023-02-24T21:46:01.756Z,8.05
2023-02-24T21:48:29.015Z,7.38
2023-02-24T21:50:59.830Z,9.05
2023-02-24T21:53:30.127Z,9.10
2023-02-24T21:56:04.681Z,7.50
2023-02-24T21:58:32.827Z,7.88
2023-02-24T22:00:59.986Z,7.45
2023-02-24T22:03:28.107Z,6.38
2023-02-24T22:05:55.508Z,9.82
2023-02-24T22:08:22.901Z,8.25
2023-02-24T22:10:58.771Z,9.65
2023-02-24T22:13:26.051Z,9.82
2023-02-24T22:15:53.443Z,9.25
2023-02-24T22:18:21.357Z,8.20
2023-02-24T22:20:48.554Z,10.50
2023-02-24T22:23:16.038Z,9.90
2023-02-24T22:25:43.241Z,8.80
2023-02-24T22:28:10.407Z,11.02
2023-02-24T22:30:38.141Z,9.77
2023-02-24T22:33:05.415Z,9.50
2023-02-24T22:35:35.133Z,8.27
2023-02-24T22:38:02.622Z,7.40
2023-02-24T22:40:29.764Z,5.80
2023-02-24T22:42:56.869Z,9.07
2023-02-24T22:45:24.309Z,8.60
2023-02-24T22:47:51.844Z,8.13
2023-02-24T22:50:19.027Z,9.38
2023-02-24T22:52:46.200Z,7.78
2023-02-24T22:55:13.401Z,6.53
2023-02-24T22:57:40.505Z,7.32
2023-02-24T23:00:10.685Z,8.77
2023-02-24T23:02:38.253Z,8.98
2023-02-24T23:05:05.687Z,8.52
2023-02-24T23:07:33.986Z,7.85
2023-02-24T23:10:01.169Z,7.45
2023-02-24T23:12:28.313Z,8.30
2023-02-24T23:14:56.083Z,8.40
2023-02-24T23:17:24.093Z,6.28
2023-02-24T23:19:51.193Z,7.38
2023-02-24T23:22:19.135Z,5.82
2023-02-24T23:24:46.312Z,7.10
2023-02-24T23:27:13.455Z,8.77
2023-02-24T23:29:41.038Z,8.63
2023-02-24T23:32:08.600Z,10.95
2023-02-24T23:34:38.560Z,6.80
2023-02-24T23:37:05.963Z,9.00
2023-02-24T23:39:33.234Z,9.50
2023-02-24T23:42:00.355Z,6.15
2023-02-24T23:44:27.596Z,9.45
2023-02-24T23:46:58.120Z,7.68
2023-02-24T23:49:29.404Z,6.82
2023-02-24T23:52:03.644Z,6.28
2023-02-24T23:54:30.762Z,7.10
2023-02-24T23:56:57.990Z,6.88
2023-02-24T23:59:25.885Z,5.95
